createdAt,value
2024-05-09T00:05:33.302Z,20.80
2024-05-09T00:15:32.847Z,20.30
2024-05-09T00:25:32.457Z,20.40
2024-05-09T00:35:32.237Z,19.40
2024-05-09T00:45:31.731Z,18.90
2024-05-09T00:55:36.870Z,20.40
2024-05-09T01:05:36.479Z,21.20
2024-05-09T01:15:36.161Z,22.80
2024-05-09T01:25:35.803Z,24.40
2024-05-09T01:35:35.434Z,24.20
2024-05-09T01:45:34.920Z,25.20
2024-05-09T01:55:34.640Z,24.80
2024-05-09T02:05:34.203Z,26.00
2024-05-09T02:15:33.792Z,23.40
2024-05-09T02:25:33.531Z,24.60
2024-05-09T02:35:33.729Z,24.60
2024-05-09T02:45:33.650Z,25.00
2024-05-09T02:55:33.725Z,26.50
2024-05-09T03:05:34.010Z,29.30
2024-05-09T03:15:33.886Z,28.30
2024-05-09T03:25:34.235Z,27.80
2024-05-09T03:35:34.100Z,28.50
2024-05-09T03:45:34.028Z,24.30
2024-05-09T03:55:34.040Z,24.50
2024-05-09T04:05:34.427Z,27.30
2024-05-09T04:15:34.238Z,23.90
2024-05-09T04:25:34.047Z,22.30
2024-05-09T04:35:34.110Z,24.10
2024-05-09T04:45:34.079Z,23.00
2024-05-09T04:55:34.019Z,22.90
2024-05-09T05:05:34.140Z,21.80
2024-05-09T05:15:34.008Z,21.60
2024-05-09T05:25:34.067Z,21.90
2024-05-09T05:35:34.299Z,23.90
2024-05-09T05:45:34.169Z,22.80
2024-05-09T05:55:34.288Z,25.70
2024-05-09T06:05:34.372Z,25.80
2024-05-09T06:15:39.501Z,26.40
2024-05-09T06:25:39.203Z,28.40
2024-05-09T06:35:38.884Z,27.70
2024-05-09T06:45:38.388Z,24.60
2024-05-09T06:55:38.304Z,23.30
2024-05-09T07:05:37.664Z,23.00
2024-05-09T07:15:37.276Z,15.40
2024-05-09T07:25:36.952Z,10.10
2024-05-09T07:35:36.910Z,10.10
2024-05-09T07:45:47.500Z,8.60
2024-05-09T07:55:41.657Z,10.20
2024-05-09T08:05:41.470Z,9.50
2024-05-09T08:15:40.922Z,9.70
2024-05-09T08:25:40.463Z,9.80
2024-05-09T08:35:40.105Z,8.40
2024-05-09T08:45:45.619Z,9.70
2024-05-09T08:55:44.904Z,8.40
2024-05-09T09:05:44.511Z,9.40
2024-05-09T09:15:44.163Z,8.80
2024-05-09T09:25:43.712Z,9.40
2024-05-09T09:35:48.846Z,9.20
2024-05-09T09:45:48.530Z,8.70
2024-05-09T09:55:48.106Z,8.30
2024-05-09T10:05:47.940Z,8.90
2024-05-09T10:15:53.602Z,8.00
2024-05-09T10:25:52.604Z,11.00
2024-05-09T10:35:52.138Z,8.70
2024-05-09T10:45:51.832Z,13.40
2024-05-09T10:55:56.934Z,14.20
2024-05-09T11:05:56.571Z,8.30
2024-05-09T11:15:56.230Z,7.70
2024-05-09T11:25:55.802Z,14.60
2024-05-09T11:35:55.606Z,16.30
2024-05-09T11:46:00.992Z,12.80
2024-05-09T11:56:00.353Z,11.60
2024-05-09T12:06:00.125Z,10.90
2024-05-09T12:15:59.664Z,8.70
2024-05-09T12:26:04.759Z,7.70
2024-05-09T12:36:04.405Z,10.70
2024-05-09T12:46:04.067Z,8.90
2024-05-09T12:56:04.819Z,8.50
2024-05-09T13:06:08.951Z,9.50
2024-05-09T13:16:08.608Z,8.10
2024-05-09T13:26:08.210Z,8.50
2024-05-09T13:36:08.191Z,9.60
2024-05-09T13:46:13.392Z,8.70
2024-05-09T13:56:12.973Z,8.00
2024-05-09T14:06:13.144Z,9.20
2024-05-09T14:16:12.530Z,8.50
2024-05-09T14:26:17.595Z,7.60
2024-05-09T14:36:17.355Z,9.00
2024-05-09T14:46:16.896Z,9.30
2024-05-09T14:56:16.985Z,9.40
2024-05-09T15:06:22.176Z,8.70
2024-05-09T15:16:21.867Z,8.30
2024-05-09T15:26:21.386Z,8.60
2024-05-09T15:36:26.511Z,8.90
2024-05-09T15:46:26.269Z,9.20
2024-05-09T15:56:25.752Z,8.80
2024-05-09T16:06:25.353Z,9.40
2024-05-09T16:16:30.577Z,8.80
2024-05-09T16:26:30.166Z,8.10
2024-05-09T16:36:29.807Z,9.70
2024-05-09T16:46:34.890Z,9.00
2024-05-09T16:56:34.551Z,9.50
2024-05-09T17:06:34.231Z,9.10
2024-05-09T17:16:33.912Z,9.30
2024-05-09T17:26:38.977Z,11.10
2024-05-09T17:36:38.606Z,10.20
2024-05-09T17:46:38.263Z,13.40
2024-05-09T17:56:37.865Z,12.00
2024-05-09T18:06:43.038Z,12.20
2024-05-09T18:16:42.617Z,10.90
2024-05-09T18:26:42.269Z,11.50
2024-05-09T18:36:41.904Z,11.00
2024-05-09T18:46:47.080Z,10.90
2024-05-09T18:56:46.650Z,12.00
2024-05-09T19:06:46.293Z,11.30
2024-05-09T19:16:45.902Z,11.50
2024-05-09T19:26:51.029Z,11.10
2024-05-09T19:36:50.670Z,12.00
2024-05-09T19:46:50.290Z,11.20
2024-05-09T19:56:49.881Z,11.00
2024-05-09T20:06:49.855Z,12.00
2024-05-09T20:16:55.025Z,12.80
2024-05-09T20:26:54.577Z,11.00
2024-05-09T20:36:54.226Z,12.40
2024-05-09T20:46:53.869Z,11.80
2024-05-09T20:56:53.595Z,13.80
2024-05-09T21:06:58.845Z,11.50
2024-05-09T21:16:58.507Z,14.80
2024-05-09T21:26:58.004Z,12.20
2024-05-09T21:36:57.622Z,14.10
2024-05-09T21:46:57.234Z,12.70
2024-05-09T21:57:02.341Z,12.60
2024-05-09T22:07:01.954Z,12.90
2024-05-09T22:17:01.633Z,13.80
2024-05-09T22:27:01.180Z,12.70
2024-05-09T22:37:00.784Z,13.60
2024-05-09T22:47:00.612Z,14.10
2024-05-09T22:57:05.648Z,14.30
2024-05-09T23:07:05.233Z,13.70
2024-05-09T23:17:04.865Z,13.80
2024-05-09T23:27:04.478Z,14.00
2024-05-09T23:37:04.089Z,13.60
2024-05-09T23:47:03.811Z,14.70
2024-05-09T23:57:08.960Z,13.90
